Time;durP1;ratioP1;P1;durP2;ratioP2;P2;SDS_P1;SDS_P2;PMS_P1;PMS_P2;Temp;Humidity;BMP_temperature;BMP_pressure;BME280_temperature;BME280_humidity;BME280_pressure;Samples;Min_cycle;Max_cycle;Signal;HPM_P1;HPM_P2
2022/05/04 00:00:08;;;;;;;13.18;8.85;;;;;;;10.99;100.00;98657.84;5051264;28;20021;-64
2022/05/04 00:02:33;;;;;;;11.57;8.82;;;;;;;10.84;100.00;98660.75;5051530;28;20025;-63
2022/05/04 00:04:59;;;;;;;13.32;9.07;;;;;;;10.71;100.00;98659.72;5054940;28;20029;-63
2022/05/04 00:07:24;;;;;;;14.05;8.68;;;;;;;10.64;100.00;98666.19;5050913;28;20471;-63
2022/05/04 00:09:49;;;;;;;12.43;9.43;;;;;;;10.68;100.00;98656.59;5051192;28;20033;-64
2022/05/04 00:12:14;;;;;;;19.25;10.07;;;;;;;10.50;100.00;98630.16;5051808;28;20049;-65
2022/05/04 00:14:40;;;;;;;12.20;9.27;;;;;;;10.65;100.00;98667.84;5049818;28;20743;-63
2022/05/04 00:17:05;;;;;;;13.98;8.85;;;;;;;10.63;100.00;98665.31;5053937;28;20451;-64
2022/05/04 00:19:30;;;;;;;10.80;8.57;;;;;;;10.44;100.00;98669.69;5053543;28;20032;-64
2022/05/04 00:21:55;;;;;;;12.13;8.48;;;;;;;10.42;100.00;98665.50;5052187;28;20021;-64
2022/05/04 00:24:21;;;;;;;13.20;9.23;;;;;;;10.28;100.00;98664.66;5049979;28;20024;-65
2022/05/04 00:26:46;;;;;;;11.23;8.90;;;;;;;10.13;100.00;98670.19;5048840;28;20036;-64
2022/05/04 00:29:12;;;;;;;13.55;8.93;;;;;;;10.02;100.00;98671.63;5050527;28;20032;-65
2022/05/04 00:31:37;;;;;;;13.82;8.13;;;;;;;10.00;100.00;98664.75;5039015;28;20461;-65
2022/05/04 00:34:03;;;;;;;12.68;9.30;;;;;;;10.00;100.00;98670.16;5050586;28;20025;-65
2022/05/04 00:36:28;;;;;;;17.33;8.40;;;;;;;10.19;100.00;98660.44;5058131;28;20021;-65
2022/05/04 00:38:53;;;;;;;13.13;8.40;;;;;;;10.19;100.00;98653.19;5049084;28;20044;-64
2022/05/04 00:41:18;;;;;;;10.75;7.97;;;;;;;10.08;100.00;98660.00;5050233;28;20036;-64
2022/05/04 00:43:51;;;;;;;10.82;7.88;;;;;;;10.09;100.00;98664.38;5049159;28;20219;-65
2022/05/04 00:46:17;;;;;;;13.13;8.20;;;;;;;10.06;100.00;98663.94;5049794;28;20078;-64
2022/05/04 00:48:42;;;;;;;11.73;8.35;;;;;;;10.00;100.00;98656.66;5051181;28;20024;-64
2022/05/04 00:51:08;;;;;;;10.68;7.95;;;;;;;9.87;100.00;98650.16;5048791;28;20013;-63
2022/05/04 00:53:33;;;;;;;12.73;8.77;;;;;;;9.89;100.00;98655.38;5046136;28;20028;-63
2022/05/04 00:56:00;;;;;;;13.10;8.55;;;;;;;9.71;100.00;98631.59;5046427;28;20029;-64
2022/05/04 01:01:09;;;;;;;16.60;9.77;;;;;;;9.87;100.00;98670.94;5040509;28;20035;-63
2022/05/04 01:03:37;;;;;;;10.95;7.80;;;;;;;9.69;100.00;98668.78;5045846;28;20028;-63
2022/05/04 01:06:02;;;;;;;9.68;7.40;;;;;;;9.55;100.00;98667.91;5046013;28;20044;-63
2022/05/04 01:08:28;;;;;;;13.35;8.30;;;;;;;9.11;100.00;98635.88;5049621;28;20096;-63
2022/05/04 01:10:53;;;;;;;10.85;8.02;;;;;;;9.13;100.00;98668.91;5049537;28;20029;-63
2022/05/04 01:13:20;;;;;;;11.15;8.45;;;;;;;9.06;100.00;98678.81;5046489;28;20021;-63
2022/05/04 01:15:47;;;;;;;12.70;9.02;;;;;;;8.90;100.00;98661.88;5050606;28;20501;-63
2022/05/04 01:18:12;;;;;;;12.60;8.75;;;;;;;8.77;100.00;98646.41;5050590;28;20021;-63
2022/05/04 01:20:38;;;;;;;13.35;9.18;;;;;;;8.74;100.00;98654.91;5039007;28;20025;-63
2022/05/04 01:23:03;;;;;;;16.42;9.80;;;;;;;8.82;100.00;98677.38;5046625;28;20032;-63
2022/05/04 01:25:29;;;;;;;11.90;8.98;;;;;;;8.93;100.00;98672.31;5058129;28;20398;-64
2022/05/04 01:27:55;;;;;;;15.25;10.23;;;;;;;8.92;100.00;98670.63;5049069;28;20036;-63
2022/05/04 01:30:21;;;;;;;13.23;9.75;;;;;;;8.96;100.00;98676.44;5048825;28;20025;-65
2022/05/04 01:32:47;;;;;;;15.30;9.70;;;;;;;8.99;100.00;98679.59;5047362;28;20040;-65
2022/05/04 01:35:13;;;;;;;13.43;9.50;;;;;;;9.13;100.00;98679.69;5048774;28;20390;-64
2022/05/04 01:37:39;;;;;;;17.40;10.32;;;;;;;9.12;100.00;98672.66;5047798;28;20021;-65
2022/05/04 01:40:05;;;;;;;18.35;10.10;;;;;;;9.09;100.00;98673.00;5051255;28;20135;-64
2022/05/04 01:42:31;;;;;;;13.18;8.77;;;;;;;9.05;100.00;98671.75;5050991;28;20040;-65
2022/05/04 01:44:56;;;;;;;13.88;8.82;;;;;;;8.87;100.00;98664.97;5049752;28;20029;-65
2022/05/04 01:47:21;;;;;;;13.13;9.00;;;;;;;8.83;100.00;98670.94;5045929;28;20371;-65
2022/05/04 01:49:47;;;;;;;15.45;8.80;;;;;;;8.91;100.00;98671.66;5048750;28;20536;-65
2022/05/04 01:52:12;;;;;;;14.15;8.90;;;;;;;8.99;100.00;98681.47;5049732;28;20498;-65
2022/05/04 01:54:38;;;;;;;15.13;9.55;;;;;;;8.94;100.00;98683.94;5049333;28;20047;-65
2022/05/04 01:57:03;;;;;;;11.85;8.93;;;;;;;8.74;100.00;98654.09;5050530;28;20507;-65
2022/05/04 01:59:29;;;;;;;11.98;9.02;;;;;;;8.93;100.00;98684.94;5049704;28;20493;-65
2022/05/04 02:01:54;;;;;;;12.75;9.43;;;;;;;9.05;100.00;98688.78;5050387;28;20025;-65
2022/05/04 02:04:20;;;;;;;15.90;9.82;;;;;;;9.12;100.00;98691.53;5047871;28;20021;-65
2022/05/04 02:06:47;;;;;;;19.92;10.35;;;;;;;8.96;100.00;98668.34;5047587;28;20140;-65
2022/05/04 02:09:12;;;;;;;16.88;10.43;;;;;;;9.17;100.00;98689.09;5049093;28;20453;-65
2022/05/04 02:11:38;;;;;;;16.55;10.57;;;;;;;9.13;100.00;98688.63;5049973;28;20096;-65
2022/05/04 02:14:04;;;;;;;12.43;9.30;;;;;;;9.13;100.00;98683.22;5047969;28;20435;-64
2022/05/04 02:16:29;;;;;;;15.95;9.48;;;;;;;9.15;100.00;98683.03;5049606;28;20044;-65
2022/05/04 02:18:56;;;;;;;13.00;9.20;;;;;;;9.23;100.00;98680.19;5049786;28;20523;-65
2022/05/04 02:21:21;;;;;;;11.27;8.25;;;;;;;8.99;100.00;98644.53;5048393;28;20033;-65
2022/05/04 02:23:47;;;;;;;11.95;7.95;;;;;;;9.21;100.00;98676.84;5048831;28;20033;-65
2022/05/04 02:26:12;;;;;;;10.60;8.32;;;;;;;9.00;100.00;98643.47;5046210;28;20025;-65
2022/05/04 02:28:37;;;;;;;13.07;7.82;;;;;;;9.10;100.00;98648.53;5046527;28;20032;-65
2022/05/04 02:31:03;;;;;;;10.73;8.10;;;;;;;9.30;100.00;98674.81;5049174;28;20058;-65
2022/05/04 02:33:28;;;;;;;10.27;7.70;;;;;;;9.30;100.00;98666.72;5047537;28;20195;-65
2022/05/04 02:38:38;;;;;;;11.88;8.02;;;;;;;9.24;100.00;98657.53;5046506;28;20032;-65
2022/05/04 02:41:03;;;;;;;11.63;7.90;;;;;;;9.23;100.00;98647.78;5047863;28;20028;-65
2022/05/04 02:43:29;;;;;;;9.93;7.30;;;;;;;9.24;100.00;98654.84;5048704;28;20385;-65
2022/05/04 02:45:55;;;;;;;9.95;7.80;;;;;;;9.35;100.00;98670.50;5044460;28;20028;-65
2022/05/04 02:48:20;;;;;;;9.50;6.97;;;;;;;9.31;100.00;98671.94;5050514;28;20063;-65
2022/05/04 02:50:46;;;;;;;9.65;6.93;;;;;;;9.37;100.00;98675.69;5047951;28;20080;-65
2022/05/04 02:53:12;;;;;;;12.02;7.68;;;;;;;9.39;100.00;98665.53;5048124;28;20537;-65
2022/05/04 02:55:37;;;;;;;10.68;7.72;;;;;;;9.34;100.00;98666.13;5046441;28;20394;-65
2022/05/04 02:58:02;;;;;;;12.40;8.45;;;;;;;9.09;100.00;98649.59;5048420;28;20035;-65
2022/05/04 03:00:28;;;;;;;18.65;7.10;;;;;;;9.04;100.00;98637.69;5047690;28;20367;-65
2022/05/04 03:02:56;;;;;;;10.98;7.90;;;;;;;9.05;100.00;98655.56;5043842;28;20034;-65
2022/05/04 03:05:24;;;;;;;11.77;7.93;;;;;;;9.16;100.00;98660.41;5048489;28;20731;-65
2022/05/04 03:07:49;;;;;;;13.15;7.80;;;;;;;9.17;100.00;98659.38;5047446;28;20037;-65
2022/05/04 03:10:15;;;;;;;12.57;7.65;;;;;;;9.35;100.00;98665.13;5048641;28;20032;-65
2022/05/04 03:12:41;;;;;;;10.40;7.88;;;;;;;9.34;100.00;98659.91;5045786;28;20429;-65
2022/05/04 03:15:07;;;;;;;12.18;8.00;;;;;;;9.31;100.00;98653.03;5047770;28;20029;-65
2022/05/04 03:17:33;;;;;;;11.48;8.43;;;;;;;9.43;100.00;98664.94;5045343;28;20402;-65
2022/05/04 03:20:00;;;;;;;11.00;7.60;;;;;;;9.41;100.00;98650.81;5046583;28;20463;-65
2022/05/04 03:22:25;;;;;;;10.18;7.53;;;;;;;9.28;100.00;98639.09;5042622;28;20106;-65
2022/05/04 03:24:51;;;;;;;10.55;7.30;;;;;;;9.43;100.00;98664.94;5048213;28;20057;-65
2022/05/04 03:27:17;;;;;;;9.73;7.45;;;;;;;9.43;100.00;98662.25;5044832;28;20025;-65
2022/05/04 03:29:43;;;;;;;14.25;7.70;;;;;;;9.42;100.00;98657.84;5047587;28;20029;-65
2022/05/04 03:32:08;;;;;;;9.63;7.45;;;;;;;9.35;100.00;98643.50;5050516;28;20029;-65
2022/05/04 03:34:34;;;;;;;9.02;7.15;;;;;;;9.32;100.00;98643.06;5047356;28;20065;-65
2022/05/04 03:36:59;;;;;;;12.80;7.43;;;;;;;9.47;100.00;98669.94;5048767;28;20039;-65
2022/05/04 03:39:28;;;;;;;13.20;7.63;;;;;;;9.29;100.00;98647.00;5051272;28;20032;-65
2022/05/04 03:41:54;;;;;;;10.65;7.32;;;;;;;9.39;100.00;98666.38;5046307;28;20091;-71
2022/05/04 03:44:19;;;;;;;9.15;6.93;;;;;;;9.32;100.00;98641.19;5053967;28;20483;-70
2022/05/04 03:46:47;;;;;;;12.32;7.97;;;;;;;9.48;100.00;98660.78;5046309;28;20024;-70
2022/05/04 03:49:14;;;;;;;12.43;7.30;;;;;;;9.38;100.00;98631.47;5049910;28;20012;-70
2022/05/04 03:51:40;;;;;;;11.38;8.02;;;;;;;9.52;100.00;98649.41;5047013;28;20036;-70
2022/05/04 03:54:06;;;;;;;13.55;7.82;;;;;;;9.24;100.00;98613.53;5051259;28;20036;-72
2022/05/04 03:56:31;;;;;;;10.13;7.40;;;;;;;9.58;100.00;98664.78;5048920;28;20083;-71
2022/05/04 03:58:57;;;;;;;10.80;7.55;;;;;;;9.38;100.00;98640.41;5050230;28;20036;-65
2022/05/04 04:01:22;;;;;;;10.25;8.05;;;;;;;9.55;100.00;98661.66;5047468;28;20493;-67
2022/05/04 04:03:48;;;;;;;10.35;7.80;;;;;;;9.55;100.00;98658.97;5048004;28;20036;-67
2022/05/04 04:06:13;;;;;;;11.23;7.50;;;;;;;9.48;100.00;98648.13;5049033;28;20144;-68
2022/05/04 04:08:39;;;;;;;13.10;7.88;;;;;;;9.63;100.00;98659.63;5051528;28;20028;-67
2022/05/04 04:11:05;;;;;;;10.07;7.47;;;;;;;9.50;100.00;98645.22;5067992;28;20490;-67
2022/05/04 04:13:30;;;;;;;11.98;8.02;;;;;;;9.68;100.00;98664.44;5050723;28;20033;-68
2022/05/04 04:15:56;;;;;;;9.23;7.20;;;;;;;9.63;100.00;98658.78;5053205;28;20513;-65
2022/05/04 04:18:22;;;;;;;12.20;7.80;;;;;;;9.66;100.00;98664.63;5051759;28;20021;-68
2022/05/04 04:23:34;;;;;;;9.90;7.03;;;;;;;9.93;100.00;98658.50;5049408;28;20036;-70
2022/05/04 04:26:00;;;;;;;14.70;7.97;;;;;;;9.92;100.00;98663.06;5049827;28;20028;-67
2022/05/04 04:28:25;;;;;;;10.43;7.63;;;;;;;9.94;100.00;98666.41;5063376;28;20051;-67
2022/05/04 04:30:51;;;;;;;8.60;6.80;;;;;;;9.81;100.00;98656.38;5051071;28;20051;-69
2022/05/04 04:33:16;;;;;;;12.07;7.85;;;;;;;9.95;100.00;98661.84;5052302;28;20024;-66
2022/05/04 04:35:42;;;;;;;11.88;8.25;;;;;;;9.83;100.00;98646.22;5043855;28;20087;-68
2022/05/04 04:38:07;;;;;;;15.48;7.78;;;;;;;10.06;100.00;98680.16;5049331;28;20033;-67
2022/05/04 04:40:33;;;;;;;10.90;7.53;;;;;;;10.11;100.00;98677.69;5047731;28;20112;-66
2022/05/04 04:43:00;;;;;;;10.18;8.05;;;;;;;10.02;100.00;98660.00;5050883;28;20035;-68
2022/05/04 04:45:30;;;;;;;12.02;8.02;;;;;;;10.00;100.00;98662.88;5044977;28;20059;-67
2022/05/04 04:47:56;;;;;;;12.50;8.57;;;;;;;10.20;100.00;98681.06;5049598;28;20155;-66
2022/05/04 04:50:22;;;;;;;10.15;7.78;;;;;;;10.25;100.00;98695.63;5047856;28;20464;-71
2022/05/04 04:52:48;;;;;;;14.10;8.05;;;;;;;10.26;100.00;98694.56;5050169;28;20040;-69
2022/05/04 04:55:13;;;;;;;12.07;8.65;;;;;;;10.26;100.00;98701.84;5064826;28;20646;-68
2022/05/04 04:57:38;;;;;;;13.65;8.95;;;;;;;10.20;100.00;98681.88;5047955;28;20166;-69
2022/05/04 05:00:05;;;;;;;13.00;9.77;;;;;;;10.19;100.00;98695.59;5049945;28;20111;-66
2022/05/04 05:02:30;;;;;;;15.45;9.18;;;;;;;10.10;100.00;98684.13;5041750;28;20028;-68
2022/05/04 05:04:56;;;;;;;11.70;8.70;;;;;;;10.22;100.00;98700.59;5049368;28;20047;-65
2022/05/04 05:07:21;;;;;;;12.25;8.70;;;;;;;10.06;100.00;98686.41;5050467;28;20021;-70
2022/05/04 05:09:47;;;;;;;11.23;8.18;;;;;;;10.28;100.00;98713.34;5041849;28;20033;-66
2022/05/04 05:12:12;;;;;;;10.73;8.38;;;;;;;10.35;100.00;98713.34;5050763;28;20107;-67
2022/05/04 05:17:21;;;;;;;17.35;9.43;;;;;;;10.45;100.00;98694.84;5048267;28;20214;-66
2022/05/04 05:19:46;;;;;;;17.00;9.13;;;;;;;10.37;100.00;98692.34;5065238;28;20172;-70
2022/05/04 05:22:12;;;;;;;12.57;9.45;;;;;;;10.64;100.00;98695.94;5047956;28;20029;-69
2022/05/04 05:24:37;;;;;;;14.35;9.52;;;;;;;10.64;100.00;98693.25;5045863;28;20501;-69
2022/05/04 05:27:03;;;;;;;15.50;9.10;;;;;;;10.77;100.00;98703.22;5044558;28;20036;-69
2022/05/04 05:29:28;;;;;;;17.17;9.98;;;;;;;10.86;100.00;98700.09;5048998;28;20029;-69
2022/05/04 05:31:54;;;;;;;11.95;8.77;;;;;;;10.93;100.00;98692.81;5066117;28;20145;-71
2022/05/04 05:34:19;;;;;;;13.80;9.48;;;;;;;10.88;100.00;98683.66;5047839;28;20474;-69
2022/05/04 05:36:44;;;;;;;15.00;9.20;;;;;;;11.12;100.00;98704.69;5049448;28;20040;-68
2022/05/04 05:39:10;;;;;;;13.90;9.00;;;;;;;11.18;100.00;98709.25;5050106;28;20490;-67
2022/05/04 05:41:35;;;;;;;18.35;9.15;;;;;;;11.31;100.00;98697.56;5047270;28;20024;-66
2022/05/04 05:44:01;;;;;;;10.98;8.18;;;;;;;11.40;100.00;98706.34;5046118;28;20403;-64
2022/05/04 05:46:28;;;;;;;12.02;8.63;;;;;;;11.50;100.00;98698.59;5044657;28;20032;-62
2022/05/04 05:48:53;;;;;;;12.45;8.27;;;;;;;11.52;100.00;98706.50;5048501;28;20032;-63
2022/05/04 05:51:18;;;;;;;13.20;8.63;;;;;;;11.53;100.00;98714.44;5049764;28;20021;-65
2022/05/04 05:53:44;;;;;;;12.25;8.65;;;;;;;11.59;100.00;98705.44;5048828;28;20143;-70
2022/05/04 05:56:09;;;;;;;13.35;8.07;;;;;;;11.63;100.00;98720.25;5047404;28;20031;-70
2022/05/04 05:58:35;;;;;;;11.35;8.88;;;;;;;11.66;100.00;98716.28;5049749;28;20033;-69
2022/05/04 06:01:00;;;;;;;14.00;8.70;;;;;;;11.68;100.00;98710.63;5047975;28;20035;-70
2022/05/04 06:03:25;;;;;;;11.00;7.70;;;;;;;11.66;100.00;98720.84;5062882;28;20029;-66
2022/05/04 06:05:51;;;;;;;13.15;8.23;;;;;;;11.66;100.00;98710.00;5045312;28;20046;-67
2022/05/04 06:08:16;;;;;;;10.93;8.05;;;;;;;11.66;100.00;98719.00;5044817;28;20614;-67
2022/05/04 06:10:41;;;;;;;12.07;7.60;;;;;;;11.57;100.00;98706.69;5048430;28;20047;-66
2022/05/04 06:13:07;;;;;;;15.82;9.07;;;;;;;11.80;100.00;98725.19;5044540;28;20033;-66
2022/05/04 06:15:33;;;;;;;13.85;8.77;;;;;;;11.88;100.00;98724.16;5046376;28;20116;-66
2022/05/04 06:17:59;;;;;;;11.98;8.50;;;;;;;11.75;100.00;98700.59;5048214;28;20039;-66
2022/05/04 06:20:26;;;;;;;11.20;8.82;;;;;;;11.87;100.00;98726.06;5045117;28;20505;-67
2022/05/04 06:22:52;;;;;;;12.85;8.48;;;;;;;11.70;100.00;98693.13;5042239;28;20108;-67
2022/05/04 06:25:17;;;;;;;11.77;8.95;;;;;;;11.97;100.00;98715.59;5057795;28;20123;-66
2022/05/04 06:27:42;;;;;;;13.45;9.23;;;;;;;12.01;100.00;98722.22;5041832;28;20582;-65
2022/05/04 06:35:38;;;;;;;22.83;13.25;;;;;;;12.27;100.00;98710.44;5037768;28;20705;-68
2022/05/04 06:38:04;;;;;;;17.00;12.50;;;;;;;12.32;100.00;98714.38;5042684;28;20379;-69
2022/05/04 06:40:29;;;;;;;18.38;13.20;;;;;;;12.59;100.00;98732.16;5048172;28;20043;-69
2022/05/04 06:42:55;;;;;;;20.75;17.35;;;;;;;12.66;100.00;98726.72;5061947;28;20056;-69
2022/05/04 06:45:21;;;;;;;25.98;22.30;;;;;;;12.68;100.00;98738.16;5047308;28;20154;-69
2022/05/04 06:47:46;;;;;;;19.60;13.75;;;;;;;12.69;100.00;98739.84;5050851;28;20048;-64
2022/05/04 06:50:11;;;;;;;15.40;12.05;;;;;;;12.77;100.00;98734.16;5044261;28;20437;-64
2022/05/04 06:52:37;;;;;;;20.27;14.43;;;;;;;13.02;100.00;98742.34;5044007;28;20402;-64
2022/05/04 06:55:03;;;;;;;14.43;9.27;;;;;;;13.18;98.77;98743.66;5045200;28;20036;-63
2022/05/04 06:57:29;;;;;;;14.32;8.88;;;;;;;13.30;96.08;98751.94;5046339;28;20029;-64
2022/05/04 06:59:55;;;;;;;11.93;8.27;;;;;;;13.56;96.27;98753.59;5044502;28;20029;-63
2022/05/04 07:02:20;;;;;;;15.80;8.70;;;;;;;14.01;94.10;98747.88;5037523;28;20029;-63
2022/05/04 07:04:45;;;;;;;11.15;8.65;;;;;;;14.16;92.47;98755.66;5041811;28;20226;-66
2022/05/04 07:07:11;;;;;;;14.27;8.70;;;;;;;14.50;91.87;98746.03;5046392;28;20035;-68
2022/05/04 07:09:36;;;;;;;16.65;8.65;;;;;;;14.76;89.39;98750.28;5044583;28;20029;-69
2022/05/04 07:12:02;;;;;;;11.80;8.40;;;;;;;15.42;87.07;98720.31;5045585;28;20052;-70
2022/05/04 07:14:28;;;;;;;11.68;8.50;;;;;;;16.88;78.41;98746.59;5046452;28;20032;-65
2022/05/04 07:16:53;;;;;;;11.73;7.95;;;;;;;18.14;73.12;98733.25;5043483;28;20132;-73
2022/05/04 07:19:18;;;;;;;14.20;8.63;;;;;;;17.66;70.97;98732.03;5048397;28;20033;-72
2022/05/04 07:21:45;;;;;;;11.20;7.65;;;;;;;17.94;72.54;98738.47;5046405;28;20091;-72
2022/05/04 07:24:11;;;;;;;10.05;8.07;;;;;;;17.62;73.27;98728.13;5046032;28;20025;-68
2022/05/04 07:26:37;;;;;;;12.40;8.55;;;;;;;17.38;71.33;98729.41;5047987;28;20359;-70
2022/05/04 07:29:02;;;;;;;12.68;7.88;;;;;;;17.62;72.09;98717.19;5049360;28;20017;-71
2022/05/04 07:31:28;;;;;;;10.05;7.80;;;;;;;17.93;71.22;98725.88;5051126;28;20497;-70
2022/05/04 07:33:53;;;;;;;11.43;7.65;;;;;;;18.02;68.45;98732.53;5046967;28;20033;-69
2022/05/04 07:36:18;;;;;;;10.05;7.85;;;;;;;18.34;67.78;98745.56;5048896;28;20036;-69
2022/05/04 07:38:44;;;;;;;9.98;7.47;;;;;;;18.36;69.77;98754.31;5046400;28;20558;-69
2022/05/04 07:43:53;;;;;;;11.52;6.97;;;;;;;17.77;67.72;98741.22;5046292;28;21341;-72
2022/05/04 07:46:18;;;;;;;10.68;7.00;;;;;;;17.66;70.19;98723.00;5044186;28;20139;-71
2022/05/04 07:48:44;;;;;;;9.85;7.75;;;;;;;17.53;70.09;98729.66;5046129;28;20037;-70
2022/05/04 07:51:09;;;;;;;10.25;6.78;;;;;;;17.63;70.00;98756.31;5048953;28;20628;-64
2022/05/04 07:53:35;;;;;;;8.27;7.38;;;;;;;17.68;69.73;98742.72;5046762;28;20494;-69
2022/05/04 07:56:00;;;;;;;9.57;7.57;;;;;;;17.42;73.06;98746.97;5040954;28;20028;-70
2022/05/04 07:58:25;;;;;;;10.32;7.07;;;;;;;17.51;70.19;98738.09;5043270;28;20024;-70
2022/05/04 08:06:19;;;;;;;7.80;6.70;;;;;;;17.28;74.49;98755.50;5045364;28;20044;-72
2022/05/04 08:08:44;;;;;;;10.80;7.18;;;;;;;17.36;73.06;98762.47;5045853;28;20025;-65
2022/05/04 08:11:09;;;;;;;9.95;7.30;;;;;;;17.43;72.72;98763.13;5060327;28;20124;-65
2022/05/04 08:13:35;;;;;;;11.23;6.85;;;;;;;17.25;70.44;98772.41;5041350;28;20039;-65
2022/05/04 08:16:00;;;;;;;12.27;7.43;;;;;;;17.36;71.70;98769.84;5046389;28;20117;-65
2022/05/04 08:18:26;;;;;;;9.57;6.80;;;;;;;17.63;68.65;98770.00;5043431;28;20025;-64
2022/05/04 08:20:52;;;;;;;10.60;7.93;;;;;;;17.52;70.44;98767.09;5044224;28;20410;-66
2022/05/04 08:23:17;;;;;;;11.10;7.70;;;;;;;16.92;71.47;98773.19;5047495;28;20070;-65
2022/05/04 08:25:44;;;;;;;12.27;8.82;;;;;;;17.04;72.82;98778.59;5051375;28;20025;-66
2022/05/04 08:28:12;;;;;;;10.98;7.78;;;;;;;17.22;71.95;98783.84;5046728;28;20025;-69
2022/05/04 08:30:39;;;;;;;11.80;7.78;;;;;;;16.83;71.22;98763.72;5051046;28;20029;-70
2022/05/04 08:33:05;;;;;;;11.60;8.32;;;;;;;16.63;70.91;98766.88;5064164;28;20063;-71
2022/05/04 08:35:30;;;;;;;15.07;7.93;;;;;;;16.27;74.53;98765.31;5052326;28;20053;-71
2022/05/04 08:37:56;;;;;;;10.48;7.82;;;;;;;16.72;75.17;98790.00;5067514;28;20146;-71
2022/05/04 08:40:21;;;;;;;13.50;9.15;;;;;;;16.62;76.04;98770.69;5048466;28;20029;-70
2022/05/04 08:42:46;;;;;;;14.30;8.52;;;;;;;16.86;75.05;98785.09;5045951;28;20444;-65
2022/05/04 08:45:14;;;;;;;12.07;8.60;;;;;;;16.89;74.20;98791.97;5048690;28;20036;-68
2022/05/04 08:47:41;;;;;;;12.05;8.15;;;;;;;17.03;73.19;98796.09;5061624;28;20630;-70
2022/05/04 08:50:17;;;;;;;16.02;8.63;;;;;;;16.80;73.74;98789.63;5046039;28;20108;-69
2022/05/04 08:52:53;;;;;;;15.20;8.88;;;;;;;17.04;72.24;98784.88;5047260;28;20032;-67
2022/05/04 08:55:20;;;;;;;13.00;8.55;;;;;;;17.02;72.28;98778.84;5040574;28;20055;-69
2022/05/04 08:57:46;;;;;;;12.13;8.63;;;;;;;17.00;72.53;98772.81;5039794;28;20069;-66
2022/05/04 09:00:12;;;;;;;8.60;7.45;;;;;;;17.18;71.97;98776.38;5047825;28;20029;-66
2022/05/04 09:02:38;;;;;;;15.98;9.07;;;;;;;16.92;71.22;98751.31;5048827;28;20075;-66
2022/05/04 09:05:29;;;;;;;12.68;8.80;;;;;;;17.44;70.12;98774.91;5051057;28;20029;-66
2022/05/04 09:07:57;;;;;;;13.27;8.38;;;;;;;17.57;71.45;98774.56;5042279;28;20043;-68
2022/05/04 09:10:26;;;;;;;14.23;8.60;;;;;;;17.55;70.63;98773.97;5047374;28;20087;-67
2022/05/04 09:12:52;;;;;;;;;;;;;;;17.57;68.48;98781.94;5049398;28;20029;-67
2022/05/04 09:15:29;;;;;;;9.07;7.32;;;;;;;18.00;69.63;98777.69;5052009;28;19908;-67
2022/05/04 09:18:02;;;;;;;13.27;8.73;;;;;;;18.12;68.87;98779.22;5048486;28;20029;-64
2022/05/04 09:20:47;;;;;;;17.25;8.80;;;;;;;18.24;67.89;98764.59;5039941;28;20040;-67
2022/05/04 09:23:14;;;;;;;12.88;8.35;;;;;;;18.60;67.99;98774.91;5048162;28;20036;-67
2022/05/04 09:25:39;;;;;;;10.13;7.10;;;;;;;19.38;65.69;98763.63;5047855;28;20086;-67
2022/05/04 09:28:11;;;;;;;14.50;7.97;;;;;;;19.22;62.77;98761.84;5041814;28;20470;-67
2022/05/04 09:30:43;;;;;;;12.98;8.57;;;;;;;19.11;61.34;98776.56;5061717;28;20022;-67
2022/05/04 09:33:11;;;;;;;13.48;9.10;;;;;;;19.43;61.53;98763.66;5049318;28;20025;-67
2022/05/04 09:35:36;;;;;;;10.35;7.55;;;;;;;19.46;60.38;98762.31;5046314;28;20021;-68
2022/05/04 09:46:32;;;;;;;14.00;8.13;;;;;;;18.08;63.63;98750.72;5042576;28;20043;-68
2022/05/04 09:49:06;;;;;;;13.60;8.32;;;;;;;17.83;65.65;98777.72;5043951;28;20055;-68
2022/05/04 09:51:32;;;;;;;11.40;8.20;;;;;;;17.68;66.84;98759.97;5046017;28;20037;-68
2022/05/04 09:54:11;;;;;;;10.82;7.57;;;;;;;17.44;68.49;98770.25;5046244;28;20029;-66
2022/05/04 09:56:37;;;;;;;14.55;9.27;;;;;;;17.19;68.87;98772.56;5049788;28;20028;-66
2022/05/04 09:59:03;;;;;;;12.73;7.82;;;;;;;17.30;70.49;98763.47;5045419;28;20033;-66
2022/05/04 10:01:28;;;;;;;9.07;7.28;;;;;;;17.41;70.07;98764.47;5048753;28;20467;-66
2022/05/04 10:03:54;;;;;;;17.98;8.85;;;;;;;17.32;72.06;98761.31;5047347;28;20079;-67
2022/05/04 10:06:23;;;;;;;13.57;8.68;;;;;;;17.47;71.97;98741.56;5046715;28;20029;-67
2022/05/04 10:08:48;;;;;;;10.88;8.05;;;;;;;17.54;71.21;98761.38;5047958;28;20028;-68
2022/05/04 10:11:14;;;;;;;9.38;7.85;;;;;;;17.41;71.80;98756.25;5050281;28;20028;-68
2022/05/04 10:13:39;;;;;;;13.98;9.23;;;;;;;17.54;72.10;98761.38;5049545;28;20775;-67
2022/05/04 10:16:10;;;;;;;11.98;9.80;;;;;;;17.59;72.49;98760.63;5042932;28;20037;-67
2022/05/04 10:18:37;;;;;;;13.73;8.95;;;;;;;17.79;70.54;98758.25;5045330;28;20079;-69
2022/05/04 10:21:11;;;;;;;11.32;9.02;;;;;;;17.91;70.95;98748.00;5042557;28;20031;-69
2022/05/04 10:23:42;;;;;;;13.88;9.40;;;;;;;18.21;69.78;98749.50;5049938;28;20113;-66
2022/05/04 10:26:10;;;;;;;13.63;9.55;;;;;;;18.09;71.32;98724.97;5046977;28;20036;-66
2022/05/04 10:28:37;;;;;;;13.70;9.32;;;;;;;18.09;71.02;98744.13;5045204;28;20027;-66
2022/05/04 10:31:07;;;;;;;12.88;8.70;;;;;;;18.01;70.54;98733.63;5043576;28;20037;-67
2022/05/04 10:33:36;;;;;;;11.43;9.10;;;;;;;18.63;67.27;98737.94;5049097;28;20104;-66
2022/05/04 10:36:27;;;;;;;14.05;8.90;;;;;;;18.37;68.32;98736.84;5047363;28;20036;-66
2022/05/04 10:38:55;;;;;;;11.85;9.15;;;;;;;18.85;67.25;98709.69;5043771;28;20029;-67
2022/05/04 10:41:35;;;;;;;11.93;9.07;;;;;;;19.27;68.02;98728.97;5048069;28;20044;-66
2022/05/04 10:44:01;;;;;;;12.73;9.38;;;;;;;18.62;65.60;98720.66;5045614;28;20468;-66
2022/05/04 10:46:28;;;;;;;12.07;9.30;;;;;;;19.37;65.67;98730.97;5040340;28;20098;-65
2022/05/04 10:48:58;;;;;;;17.05;8.25;;;;;;;20.00;61.94;98722.91;5046815;28;20052;-66
2022/05/04 10:51:24;;;;;;;;;;;;;;;20.31;61.18;98727.44;5041793;28;20056;-67
2022/05/04 10:54:00;;;;;;;13.20;8.38;;;;;;;22.05;55.89;98726.72;5031140;28;19924;-67
2022/05/04 10:56:27;;;;;;;10.48;7.10;;;;;;;25.32;50.49;98714.53;5044075;28;20028;-67
2022/05/04 10:58:59;;;;;;;8.38;5.88;;;;;;;27.17;43.43;98717.19;5045311;28;20071;-67
2022/05/04 11:01:38;;;;;;;9.77;6.72;;;;;;;26.48;43.00;98709.03;5048518;28;20479;-68
2022/05/04 11:04:09;;;;;;;10.18;6.70;;;;;;;28.38;40.24;98698.41;5043633;28;20043;-68
2022/05/04 11:06:39;;;;;;;7.05;5.40;;;;;;;29.67;37.04;98689.63;5045524;28;20563;-66
2022/05/04 11:09:05;;;;;;;6.63;5.32;;;;;;;28.64;36.22;98692.13;5046370;28;20107;-67
2022/05/04 11:11:32;;;;;;;5.57;4.28;;;;;;;30.41;35.75;98695.88;5047058;28;20024;-64
2022/05/04 11:13:58;;;;;;;5.00;3.95;;;;;;;29.97;33.13;98684.91;5059653;28;20021;-66
2022/05/04 11:16:25;;;;;;;5.93;3.60;;;;;;;30.31;33.39;98686.75;5046068;28;20033;-68
2022/05/04 11:18:51;;;;;;;5.60;4.22;;;;;;;30.38;33.17;98685.41;5048435;28;20043;-66
2022/05/04 11:21:18;;;;;;;4.50;2.20;;;;;;;32.70;31.22;98678.91;5045584;28;20025;-68
2022/05/04 11:23:51;;;;;;;3.33;2.08;;;;;;;31.27;27.66;98688.03;5048405;28;20100;-69
2022/05/04 11:26:22;;;;;;;5.18;1.67;;;;;;;31.33;25.89;98683.84;5037386;28;20017;-66
2022/05/04 11:28:49;;;;;;;2.65;2.20;;;;;;;32.10;27.18;98670.19;5043756;28;20033;-65
2022/05/04 11:31:16;;;;;;;3.63;2.90;;;;;;;32.56;27.76;98668.06;5048003;28;20655;-65
2022/05/04 11:33:43;;;;;;;4.95;2.95;;;;;;;33.09;26.23;98651.22;5047980;28;20017;-65
2022/05/04 11:36:08;;;;;;;4.18;3.00;;;;;;;30.98;29.93;98665.41;5042880;28;20029;-66
2022/05/04 11:38:34;;;;;;;4.70;2.83;;;;;;;30.51;30.61;98667.56;5037485;28;20076;-68
2022/05/04 11:41:00;;;;;;;4.78;3.17;;;;;;;30.55;31.40;98649.81;5042616;28;20107;-66
2022/05/04 11:43:27;;;;;;;3.92;3.53;;;;;;;31.12;31.51;98659.53;5048120;28;20021;-66
2022/05/04 11:45:55;;;;;;;4.47;3.42;;;;;;;31.01;31.13;98656.34;5043889;28;20021;-67
2022/05/04 11:48:21;;;;;;;6.40;3.72;;;;;;;30.08;32.64;98649.09;5042863;28;20021;-68
2022/05/04 11:50:47;;;;;;;7.03;3.28;;;;;;;30.35;31.90;98645.81;5043770;28;20159;-68
2022/05/04 11:53:12;;;;;;;5.82;3.33;;;;;;;30.43;33.15;98646.13;5048370;28;20029;-68